sensor_id;sensor_type;location;lat;lon;timestamp;P1;durP1;ratioP1;P2;durP2;ratioP2
71288;SDS011;59068;52.502;9.860;2023-09-19T00:02:00;1.90;;;0.80;;
71288;SDS011;59068;52.502;9.860;2023-09-19T00:04:31;2.43;;;0.70;;
71288;SDS011;59068;52.502;9.860;2023-09-19T00:06:58;1.03;;;0.93;;
71288;SDS011;59068;52.502;9.860;2023-09-19T00:09:27;1.87;;;1.17;;
71288;SDS011;59068;52.502;9.860;2023-09-19T00:11:53;1.20;;;1.10;;
71288;SDS011;59068;52.502;9.860;2023-09-19T00:14:20;0.77;;;0.77;;
71288;SDS011;59068;52.502;9.860;2023-09-19T00:16:49;2.10;;;1.63;;
71288;SDS011;59068;52.502;9.860;2023-09-19T00:19:16;2.00;;;1.23;;
71288;SDS011;59068;52.502;9.860;2023-09-19T00:21:44;1.50;;;1.40;;
71288;SDS011;59068;52.502;9.860;2023-09-19T00:24:10;1.47;;;1.37;;
71288;SDS011;59068;52.502;9.860;2023-09-19T00:26:37;2.90;;;1.50;;
71288;SDS011;59068;52.502;9.860;2023-09-19T00:29:05;3.13;;;1.57;;
71288;SDS011;59068;52.502;9.860;2023-09-19T00:31:33;1.70;;;1.60;;
71288;SDS011;59068;52.502;9.860;2023-09-19T00:34:02;1.83;;;1.37;;
71288;SDS011;59068;52.502;9.860;2023-09-19T00:36:35;2.73;;;1.50;;
71288;SDS011;59068;52.502;9.860;2023-09-19T00:39:05;2.97;;;1.63;;
71288;SDS011;59068;52.502;9.860;2023-09-19T00:41:33;2.00;;;1.63;;
71288;SDS011;59068;52.502;9.860;2023-09-19T00:44:01;4.50;;;1.93;;
71288;SDS011;59068;52.502;9.860;2023-09-19T00:46:29;2.97;;;2.00;;
71288;SDS011;59068;52.502;9.860;2023-09-19T00:48:55;2.30;;;2.10;;
71288;SDS011;59068;52.502;9.860;2023-09-19T00:51:23;2.63;;;1.90;;
71288;SDS011;59068;52.502;9.860;2023-09-19T00:53:50;4.83;;;1.83;;
71288;SDS011;59068;52.502;9.860;2023-09-19T00:56:19;2.10;;;1.90;;
71288;SDS011;59068;52.502;9.860;2023-09-19T00:58:46;2.40;;;2.20;;
71288;SDS011;59068;52.502;9.860;2023-09-19T01:01:12;4.47;;;2.23;;
71288;SDS011;59068;52.502;9.860;2023-09-19T01:03:40;4.87;;;2.60;;
71288;SDS011;59068;52.502;9.860;2023-09-19T01:06:07;2.60;;;2.13;;
71288;SDS011;59068;52.502;9.860;2023-09-19T01:08:34;2.40;;;2.17;;
71288;SDS011;59068;52.502;9.860;2023-09-19T01:11:03;2.83;;;2.50;;
71288;SDS011;59068;52.502;9.860;2023-09-19T01:13:54;3.50;;;2.67;;
71288;SDS011;59068;52.502;9.860;2023-09-19T01:16:28;3.20;;;2.80;;
71288;SDS011;59068;52.502;9.860;2023-09-19T01:19:02;2.90;;;2.70;;
71288;SDS011;59068;52.502;9.860;2023-09-19T01:21:36;4.20;;;2.77;;
71288;SDS011;59068;52.502;9.860;2023-09-19T01:27:25;4.13;;;2.70;;
71288;SDS011;59068;52.502;9.860;2023-09-19T01:30:08;3.93;;;2.57;;
71288;SDS011;59068;52.502;9.860;2023-09-19T01:32:36;2.60;;;2.33;;
71288;SDS011;59068;52.502;9.860;2023-09-19T01:35:03;6.33;;;2.70;;
71288;SDS011;59068;52.502;9.860;2023-09-19T01:37:30;4.90;;;2.67;;
71288;SDS011;59068;52.502;9.860;2023-09-19T01:39:58;2.90;;;2.33;;
71288;SDS011;59068;52.502;9.860;2023-09-19T01:42:37;3.87;;;2.57;;
71288;SDS011;59068;52.502;9.860;2023-09-19T01:45:10;3.13;;;2.83;;
71288;SDS011;59068;52.502;9.860;2023-09-19T01:47:41;4.47;;;3.03;;
71288;SDS011;59068;52.502;9.860;2023-09-19T01:50:12;3.43;;;3.00;;
71288;SDS011;59068;52.502;9.860;2023-09-19T01:52:46;5.07;;;2.90;;
71288;SDS011;59068;52.502;9.860;2023-09-19T01:55:14;3.77;;;3.10;;
71288;SDS011;59068;52.502;9.860;2023-09-19T01:57:45;4.67;;;3.30;;
71288;SDS011;59068;52.502;9.860;2023-09-19T02:00:21;4.53;;;3.03;;
71288;SDS011;59068;52.502;9.860;2023-09-19T02:02:48;7.27;;;3.30;;
71288;SDS011;59068;52.502;9.860;2023-09-19T02:05:21;5.10;;;3.20;;
71288;SDS011;59068;52.502;9.860;2023-09-19T02:07:49;5.20;;;3.20;;
71288;SDS011;59068;52.502;9.860;2023-09-19T02:10:15;4.67;;;3.20;;
71288;SDS011;59068;52.502;9.860;2023-09-19T02:12:43;2.93;;;2.73;;
71288;SDS011;59068;52.502;9.860;2023-09-19T02:15:10;3.83;;;2.97;;
71288;SDS011;59068;52.502;9.860;2023-09-19T02:17:38;4.13;;;3.60;;
71288;SDS011;59068;52.502;9.860;2023-09-19T02:20:05;4.40;;;3.43;;
71288;SDS011;59068;52.502;9.860;2023-09-19T02:22:39;4.03;;;3.63;;
71288;SDS011;59068;52.502;9.860;2023-09-19T02:25:06;5.53;;;3.77;;
71288;SDS011;59068;52.502;9.860;2023-09-19T02:27:33;4.23;;;3.30;;
71288;SDS011;59068;52.502;9.860;2023-09-19T02:30:01;6.97;;;3.67;;
71288;SDS011;59068;52.502;9.860;2023-09-19T02:32:29;4.43;;;3.73;;
71288;SDS011;59068;52.502;9.860;2023-09-19T02:34:57;5.73;;;3.33;;
71288;SDS011;59068;52.502;9.860;2023-09-19T02:37:24;5.87;;;3.37;;
71288;SDS011;59068;52.502;9.860;2023-09-19T02:39:51;4.30;;;3.30;;
71288;SDS011;59068;52.502;9.860;2023-09-19T02:42:18;4.10;;;3.60;;
71288;SDS011;59068;52.502;9.860;2023-09-19T02:44:46;8.43;;;3.80;;
71288;SDS011;59068;52.502;9.860;2023-09-19T02:47:13;4.23;;;2.63;;
71288;SDS011;59068;52.502;9.860;2023-09-19T02:49:41;3.57;;;2.80;;
71288;SDS011;59068;52.502;9.860;2023-09-19T02:52:10;3.50;;;2.90;;
71288;SDS011;59068;52.502;9.860;2023-09-19T02:54:39;4.97;;;3.27;;
71288;SDS011;59068;52.502;9.860;2023-09-19T02:57:07;4.97;;;3.60;;
71288;SDS011;59068;52.502;9.860;2023-09-19T02:59:35;5.50;;;3.40;;
71288;SDS011;59068;52.502;9.860;2023-09-19T03:02:02;4.23;;;3.57;;
71288;SDS011;59068;52.502;9.860;2023-09-19T03:04:30;4.13;;;3.73;;
71288;SDS011;59068;52.502;9.860;2023-09-19T03:06:58;6.57;;;3.83;;
71288;SDS011;59068;52.502;9.860;2023-09-19T03:09:27;5.13;;;3.20;;
71288;SDS011;59068;52.502;9.860;2023-09-19T03:11:54;6.03;;;3.77;;
71288;SDS011;59068;52.502;9.860;2023-09-19T03:14:21;6.07;;;3.30;;
71288;SDS011;59068;52.502;9.860;2023-09-19T03:16:48;3.80;;;3.07;;
71288;SDS011;59068;52.502;9.860;2023-09-19T03:19:17;6.43;;;3.40;;
71288;SDS011;59068;52.502;9.860;2023-09-19T03:21:46;4.63;;;2.53;;
71288;SDS011;59068;52.502;9.860;2023-09-19T03:24:14;4.83;;;3.03;;
71288;SDS011;59068;52.502;9.860;2023-09-19T03:26:42;5.10;;;3.30;;
71288;SDS011;59068;52.502;9.860;2023-09-19T03:29:10;4.00;;;3.20;;
71288;SDS011;59068;52.502;9.860;2023-09-19T03:31:38;4.97;;;3.20;;
71288;SDS011;59068;52.502;9.860;2023-09-19T03:34:05;6.63;;;3.23;;
71288;SDS011;59068;52.502;9.860;2023-09-19T03:36:40;4.17;;;3.17;;
71288;SDS011;59068;52.502;9.860;2023-09-19T03:39:07;4.73;;;2.93;;
71288;SDS011;59068;52.502;9.860;2023-09-19T03:41:33;5.63;;;2.90;;
71288;SDS011;59068;52.502;9.860;2023-09-19T03:44:03;3.63;;;2.93;;
71288;SDS011;59068;52.502;9.860;2023-09-19T03:46:30;5.50;;;2.70;;
71288;SDS011;59068;52.502;9.860;2023-09-19T03:48:57;5.80;;;2.83;;
71288;SDS011;59068;52.502;9.860;2023-09-19T03:51:24;5.47;;;2.67;;
71288;SDS011;59068;52.502;9.860;2023-09-19T03:53:50;4.53;;;2.73;;
71288;SDS011;59068;52.502;9.860;2023-09-19T03:56:17;5.17;;;2.43;;
71288;SDS011;59068;52.502;9.860;2023-09-19T03:58:44;6.47;;;2.60;;
71288;SDS011;59068;52.502;9.860;2023-09-19T04:01:12;4.20;;;2.77;;
71288;SDS011;59068;52.502;9.860;2023-09-19T04:03:39;3.50;;;2.40;;
71288;SDS011;59068;52.502;9.860;2023-09-19T04:06:12;3.37;;;2.57;;
71288;SDS011;59068;52.502;9.860;2023-09-19T04:08:39;4.43;;;2.60;;
71288;SDS011;59068;52.502;9.860;2023-09-19T04:11:05;3.83;;;2.60;;
71288;SDS011;59068;52.502;9.860;2023-09-19T04:13:32;3.67;;;1.90;;
71288;SDS011;59068;52.502;9.860;2023-09-19T04:15:59;4.60;;;2.57;;
71288;SDS011;59068;52.502;9.860;2023-09-19T04:18:27;5.67;;;2.23;;
71288;SDS011;59068;52.502;9.860;2023-09-19T04:20:56;3.57;;;2.27;;
71288;SDS011;59068;52.502;9.860;2023-09-19T04:23:23;4.63;;;2.27;;
71288;SDS011;59068;52.502;9.860;2023-09-19T04:25:51;4.77;;;2.30;;
71288;SDS011;59068;52.502;9.860;2023-09-19T04:28:18;4.00;;;2.40;;
71288;SDS011;59068;52.502;9.860;2023-09-19T04:30:48;4.70;;;2.30;;
71288;SDS011;59068;52.502;9.860;2023-09-19T04:33:15;6.60;;;2.67;;
71288;SDS011;59068;52.502;9.860;2023-09-19T04:35:43;4.87;;;2.40;;
71288;SDS011;59068;52.502;9.860;2023-09-19T04:38:10;4.43;;;2.10;;
71288;SDS011;59068;52.502;9.860;2023-09-19T04:40:37;5.20;;;2.30;;
71288;SDS011;59068;52.502;9.860;2023-09-19T04:43:04;4.90;;;2.43;;
71288;SDS011;59068;52.502;9.860;2023-09-19T04:45:32;5.17;;;2.23;;
71288;SDS011;59068;52.502;9.860;2023-09-19T04:47:59;4.80;;;2.07;;
71288;SDS011;59068;52.502;9.860;2023-09-19T04:50:26;4.50;;;2.30;;
71288;SDS011;59068;52.502;9.860;2023-09-19T04:52:54;5.70;;;2.40;;
71288;SDS011;59068;52.502;9.860;2023-09-19T04:55:21;3.37;;;2.17;;
71288;SDS011;59068;52.502;9.860;2023-09-19T04:57:48;4.83;;;2.47;;
71288;SDS011;59068;52.502;9.860;2023-09-19T05:00:16;3.20;;;2.10;;
71288;SDS011;59068;52.502;9.860;2023-09-19T05:02:43;9.67;;;2.40;;
71288;SDS011;59068;52.502;9.860;2023-09-19T05:05:10;3.17;;;2.00;;
71288;SDS011;59068;52.502;9.860;2023-09-19T05:07:41;4.23;;;2.40;;
71288;SDS011;59068;52.502;9.860;2023-09-19T05:10:10;3.97;;;2.30;;
71288;SDS011;59068;52.502;9.860;2023-09-19T05:12:38;6.03;;;2.30;;
71288;SDS011;59068;52.502;9.860;2023-09-19T05:15:05;6.13;;;2.20;;
71288;SDS011;59068;52.502;9.860;2023-09-19T05:17:33;7.37;;;2.50;;
71288;SDS011;59068;52.502;9.860;2023-09-19T05:19:59;7.17;;;2.33;;
71288;SDS011;59068;52.502;9.860;2023-09-19T05:22:31;4.43;;;2.43;;
71288;SDS011;59068;52.502;9.860;2023-09-19T05:24:59;5.60;;;2.67;;
71288;SDS011;59068;52.502;9.860;2023-09-19T05:27:27;6.53;;;2.60;;
71288;SDS011;59068;52.502;9.860;2023-09-19T05:29:54;5.90;;;2.53;;
71288;SDS011;59068;52.502;9.860;2023-09-19T05:32:21;6.00;;;2.87;;
71288;SDS011;59068;52.502;9.860;2023-09-19T05:34:47;5.37;;;3.07;;
71288;SDS011;59068;52.502;9.860;2023-09-19T05:37:15;4.40;;;2.87;;
71288;SDS011;59068;52.502;9.860;2023-09-19T05:39:43;4.63;;;3.27;;
71288;SDS011;59068;52.502;9.860;2023-09-19T05:42:09;4.43;;;3.27;;
71288;SDS011;59068;52.502;9.860;2023-09-19T05:44:37;6.00;;;3.40;;
71288;SDS011;59068;52.502;9.860;2023-09-19T05:47:04;6.37;;;3.27;;
71288;SDS011;59068;52.502;9.860;2023-09-19T05:49:34;5.47;;;3.97;;
71288;SDS011;59068;52.502;9.860;2023-09-19T05:52:02;8.63;;;4.20;;
71288;SDS011;59068;52.502;9.860;2023-09-19T05:54:29;6.13;;;4.63;;
71288;SDS011;59068;52.502;9.860;2023-09-19T05:56:56;7.07;;;4.67;;
71288;SDS011;59068;52.502;9.860;2023-09-19T05:59:23;5.90;;;4.53;;
71288;SDS011;59068;52.502;9.860;2023-09-19T06:01:50;8.47;;;5.33;;
71288;SDS011;59068;52.502;9.860;2023-09-19T06:04:18;6.73;;;4.53;;
71288;SDS011;59068;52.502;9.860;2023-09-19T06:06:45;7.07;;;4.17;;
71288;SDS011;59068;52.502;9.860;2023-09-19T06:09:14;8.10;;;4.67;;
71288;SDS011;59068;52.502;9.860;2023-09-19T06:11:41;6.60;;;4.27;;
71288;SDS011;59068;52.502;9.860;2023-09-19T06:14:07;5.70;;;4.30;;
71288;SDS011;59068;52.502;9.860;2023-09-19T06:16:35;7.67;;;4.93;;
71288;SDS011;59068;52.502;9.860;2023-09-19T06:19:04;8.53;;;4.87;;
71288;SDS011;59068;52.502;9.860;2023-09-19T06:21:34;6.40;;;4.73;;
71288;SDS011;59068;52.502;9.860;2023-09-19T06:24:00;5.73;;;4.80;;
71288;SDS011;59068;52.502;9.860;2023-09-19T06:26:28;6.43;;;4.93;;
71288;SDS011;59068;52.502;9.860;2023-09-19T06:28:55;6.73;;;5.07;;
71288;SDS011;59068;52.502;9.860;2023-09-19T06:31:22;7.70;;;4.47;;
71288;SDS011;59068;52.502;9.860;2023-09-19T06:33:51;9.77;;;4.83;;
71288;SDS011;59068;52.502;9.860;2023-09-19T06:36:19;9.20;;;4.50;;
71288;SDS011;59068;52.502;9.860;2023-09-19T06:38:46;5.90;;;4.23;;
71288;SDS011;59068;52.502;9.860;2023-09-19T06:41:16;5.80;;;4.27;;
71288;SDS011;59068;52.502;9.860;2023-09-19T06:43:43;5.30;;;4.17;;
71288;SDS011;59068;52.502;9.860;2023-09-19T06:46:10;8.30;;;4.33;;
71288;SDS011;59068;52.502;9.860;2023-09-19T06:48:36;6.00;;;4.10;;
71288;SDS011;59068;52.502;9.860;2023-09-19T06:51:03;6.47;;;3.77;;
71288;SDS011;59068;52.502;9.860;2023-09-19T06:53:31;4.90;;;3.60;;
71288;SDS011;59068;52.502;9.860;2023-09-19T06:55:59;7.10;;;3.47;;
71288;SDS011;59068;52.502;9.860;2023-09-19T06:58:26;9.93;;;3.60;;
71288;SDS011;59068;52.502;9.860;2023-09-19T07:00:53;6.50;;;3.43;;
71288;SDS011;59068;52.502;9.860;2023-09-19T07:03:20;3.97;;;2.77;;
71288;SDS011;59068;52.502;9.860;2023-09-19T07:05:51;5.37;;;3.17;;
71288;SDS011;59068;52.502;9.860;2023-09-19T07:08:17;6.00;;;3.03;;
71288;SDS011;59068;52.502;9.860;2023-09-19T07:10:46;7.33;;;2.97;;
71288;SDS011;59068;52.502;9.860;2023-09-19T07:13:14;5.37;;;3.17;;
71288;SDS011;59068;52.502;9.860;2023-09-19T07:15:42;5.70;;;2.50;;
71288;SDS011;59068;52.502;9.860;2023-09-19T07:18:12;4.77;;;2.50;;
71288;SDS011;59068;52.502;9.860;2023-09-19T07:20:40;8.13;;;2.47;;
71288;SDS011;59068;52.502;9.860;2023-09-19T07:23:10;5.03;;;2.30;;
71288;SDS011;59068;52.502;9.860;2023-09-19T07:25:38;7.17;;;2.33;;
71288;SDS011;59068;52.502;9.860;2023-09-19T07:28:07;5.77;;;1.97;;
71288;SDS011;59068;52.502;9.860;2023-09-19T07:30:35;4.93;;;1.63;;
71288;SDS011;59068;52.502;9.860;2023-09-19T07:33:04;5.93;;;1.97;;
71288;SDS011;59068;52.502;9.860;2023-09-19T07:35:31;4.87;;;2.20;;
71288;SDS011;59068;52.502;9.860;2023-09-19T07:37:57;5.93;;;2.10;;
71288;SDS011;59068;52.502;9.860;2023-09-19T07:40:26;6.00;;;1.90;;
71288;SDS011;59068;52.502;9.860;2023-09-19T07:42:53;5.67;;;2.00;;
71288;SDS011;59068;52.502;9.860;2023-09-19T07:45:22;6.00;;;1.87;;
71288;SDS011;59068;52.502;9.860;2023-09-19T07:47:50;5.30;;;1.57;;
71288;SDS011;59068;52.502;9.860;2023-09-19T07:50:17;6.00;;;1.63;;
71288;SDS011;59068;52.502;9.860;2023-09-19T07:52:44;5.50;;;1.43;;
71288;SDS011;59068;52.502;9.860;2023-09-19T07:55:12;5.70;;;1.40;;
71288;SDS011;59068;52.502;9.860;2023-09-19T07:57:42;4.27;;;1.50;;
71288;SDS011;59068;52.502;9.860;2023-09-19T08:00:09;4.70;;;1.50;;
71288;SDS011;59068;52.502;9.860;2023-09-19T08:02:39;6.30;;;1.33;;
71288;SDS011;59068;52.502;9.860;2023-09-19T08:05:07;4.53;;;1.50;;
71288;SDS011;59068;52.502;9.860;2023-09-19T08:07:35;5.53;;;1.63;;
71288;SDS011;59068;52.502;9.860;2023-09-19T08:10:02;7.13;;;2.87;;
71288;SDS011;59068;52.502;9.860;2023-09-19T08:12:29;6.27;;;1.80;;
71288;SDS011;59068;52.502;9.860;2023-09-19T08:14:57;4.63;;;1.60;;
71288;SDS011;59068;52.502;9.860;2023-09-19T08:17:24;4.73;;;1.70;;
71288;SDS011;59068;52.502;9.860;2023-09-19T08:19:52;6.00;;;1.60;;
71288;SDS011;59068;52.502;9.860;2023-09-19T08:22:19;7.83;;;1.47;;
71288;SDS011;59068;52.502;9.860;2023-09-19T08:24:47;7.07;;;2.00;;
71288;SDS011;59068;52.502;9.860;2023-09-19T08:27:14;3.47;;;1.27;;
71288;SDS011;59068;52.502;9.860;2023-09-19T08:29:43;4.00;;;1.33;;
71288;SDS011;59068;52.502;9.860;2023-09-19T08:32:10;6.73;;;1.73;;
71288;SDS011;59068;52.502;9.860;2023-09-19T08:34:36;5.90;;;1.93;;
71288;SDS011;59068;52.502;9.860;2023-09-19T08:37:04;4.37;;;1.20;;
71288;SDS011;59068;52.502;9.860;2023-09-19T08:39:31;7.57;;;1.70;;
71288;SDS011;59068;52.502;9.860;2023-09-19T08:42:00;3.27;;;1.30;;
71288;SDS011;59068;52.502;9.860;2023-09-19T08:44:27;4.30;;;1.70;;
71288;SDS011;59068;52.502;9.860;2023-09-19T08:46:56;4.70;;;0.70;;
71288;SDS011;59068;52.502;9.860;2023-09-19T08:49:33;7.53;;;1.77;;
71288;SDS011;59068;52.502;9.860;2023-09-19T08:52:07;5.37;;;1.30;;
71288;SDS011;59068;52.502;9.860;2023-09-19T08:54:38;4.17;;;1.33;;
71288;SDS011;59068;52.502;9.860;2023-09-19T08:57:07;3.17;;;1.57;;
71288;SDS011;59068;52.502;9.860;2023-09-19T08:59:37;2.67;;;0.90;;
71288;SDS011;59068;52.502;9.860;2023-09-19T09:02:07;5.13;;;1.30;;
71288;SDS011;59068;52.502;9.860;2023-09-19T09:04:37;5.37;;;1.50;;
71288;SDS011;59068;52.502;9.860;2023-09-19T09:07:06;7.03;;;1.77;;
71288;SDS011;59068;52.502;9.860;2023-09-19T09:09:37;6.13;;;1.40;;
71288;SDS011;59068;52.502;9.860;2023-09-19T09:12:07;3.33;;;1.10;;
71288;SDS011;59068;52.502;9.860;2023-09-19T09:14:37;4.53;;;1.30;;
71288;SDS011;59068;52.502;9.860;2023-09-19T09:17:04;3.80;;;1.13;;
71288;SDS011;59068;52.502;9.860;2023-09-19T09:19:30;3.73;;;1.33;;
71288;SDS011;59068;52.502;9.860;2023-09-19T09:22:06;5.40;;;1.90;;
71288;SDS011;59068;52.502;9.860;2023-09-19T09:24:34;3.40;;;1.23;;
71288;SDS011;59068;52.502;9.860;2023-09-19T09:27:03;2.67;;;1.20;;
71288;SDS011;59068;52.502;9.860;2023-09-19T09:29:39;4.33;;;1.43;;
71288;SDS011;59068;52.502;9.860;2023-09-19T09:32:17;4.60;;;1.50;;
71288;SDS011;59068;52.502;9.860;2023-09-19T09:34:45;3.93;;;1.33;;
71288;SDS011;59068;52.502;9.860;2023-09-19T09:37:14;6.13;;;1.57;;
71288;SDS011;59068;52.502;9.860;2023-09-19T09:39:48;5.77;;;1.27;;
71288;SDS011;59068;52.502;9.860;2023-09-19T09:42:28;5.03;;;1.40;;
71288;SDS011;59068;52.502;9.860;2023-09-19T09:45:11;3.87;;;1.40;;
71288;SDS011;59068;52.502;9.860;2023-09-19T09:47:41;4.53;;;1.50;;
71288;SDS011;59068;52.502;9.860;2023-09-19T09:50:17;3.87;;;1.27;;
71288;SDS011;59068;52.502;9.860;2023-09-19T09:52:55;4.77;;;1.40;;
71288;SDS011;59068;52.502;9.860;2023-09-19T09:55:32;3.40;;;1.17;;
71288;SDS011;59068;52.502;9.860;2023-09-19T09:58:26;2.27;;;1.20;;
71288;SDS011;59068;52.502;9.860;2023-09-19T10:00:55;3.43;;;1.50;;
71288;SDS011;59068;52.502;9.860;2023-09-19T10:03:30;4.07;;;1.70;;
71288;SDS011;59068;52.502;9.860;2023-09-19T10:05:58;5.17;;;1.13;;
71288;SDS011;59068;52.502;9.860;2023-09-19T10:08:35;3.17;;;1.57;;
71288;SDS011;59068;52.502;9.860;2023-09-19T10:11:14;2.07;;;1.27;;
71288;SDS011;59068;52.502;9.860;2023-09-19T10:13:42;5.03;;;1.60;;
71288;SDS011;59068;52.502;9.860;2023-09-19T10:16:09;4.67;;;1.27;;
71288;SDS011;59068;52.502;9.860;2023-09-19T10:18:36;6.57;;;1.70;;
71288;SDS011;59068;52.502;9.860;2023-09-19T10:21:04;2.57;;;1.33;;
71288;SDS011;59068;52.502;9.860;2023-09-19T10:23:33;3.73;;;1.97;;
71288;SDS011;59068;52.502;9.860;2023-09-19T10:26:03;1.70;;;1.20;;
71288;SDS011;59068;52.502;9.860;2023-09-19T10:28:32;6.13;;;1.80;;
71288;SDS011;59068;52.502;9.860;2023-09-19T10:31:00;3.73;;;1.60;;
71288;SDS011;59068;52.502;9.860;2023-09-19T10:33:28;5.10;;;1.50;;
71288;SDS011;59068;52.502;9.860;2023-09-19T10:36:02;6.63;;;1.50;;
71288;SDS011;59068;52.502;9.860;2023-09-19T10:38:31;4.67;;;1.50;;
71288;SDS011;59068;52.502;9.860;2023-09-19T10:41:02;5.37;;;1.50;;
71288;SDS011;59068;52.502;9.860;2023-09-19T10:43:29;3.07;;;1.70;;
71288;SDS011;59068;52.502;9.860;2023-09-19T10:45:57;3.90;;;1.50;;
71288;SDS011;59068;52.502;9.860;2023-09-19T10:48:29;4.23;;;1.30;;
71288;SDS011;59068;52.502;9.860;2023-09-19T10:50:57;2.90;;;1.30;;
71288;SDS011;59068;52.502;9.860;2023-09-19T10:53:29;3.77;;;1.37;;
71288;SDS011;59068;52.502;9.860;2023-09-19T10:56:10;3.67;;;1.20;;
71288;SDS011;59068;52.502;9.860;2023-09-19T10:58:42;3.30;;;1.70;;
71288;SDS011;59068;52.502;9.860;2023-09-19T11:01:10;7.43;;;1.50;;
71288;SDS011;59068;52.502;9.860;2023-09-19T11:03:40;2.07;;;1.53;;
71288;SDS011;59068;52.502;9.860;2023-09-19T11:06:10;5.07;;;2.00;;
71288;SDS011;59068;52.502;9.860;2023-09-19T11:08:53;7.67;;;2.17;;
71288;SDS011;59068;52.502;9.860;2023-09-19T11:11:43;4.13;;;1.37;;
71288;SDS011;59068;52.502;9.860;2023-09-19T11:14:28;4.33;;;1.90;;
71288;SDS011;59068;52.502;9.860;2023-09-19T11:23:17;3.20;;;1.50;;
71288;SDS011;59068;52.502;9.860;2023-09-19T11:25:48;6.53;;;2.23;;
71288;SDS011;59068;52.502;9.860;2023-09-19T11:34:41;5.80;;;1.77;;
71288;SDS011;59068;52.502;9.860;2023-09-19T11:40:36;6.33;;;1.90;;
71288;SDS011;59068;52.502;9.860;2023-09-19T11:46:07;4.50;;;1.60;;
71288;SDS011;59068;52.502;9.860;2023-09-19T11:48:40;4.27;;;1.40;;
71288;SDS011;59068;52.502;9.860;2023-09-19T11:51:10;6.70;;;1.73;;
71288;SDS011;59068;52.502;9.860;2023-09-19T11:53:41;4.60;;;1.60;;
71288;SDS011;59068;52.502;9.860;2023-09-19T11:56:09;5.00;;;2.03;;
71288;SDS011;59068;52.502;9.860;2023-09-19T11:58:37;3.83;;;1.43;;
71288;SDS011;59068;52.502;9.860;2023-09-19T12:01:04;5.77;;;1.40;;
71288;SDS011;59068;52.502;9.860;2023-09-19T12:03:35;4.30;;;1.20;;
71288;SDS011;59068;52.502;9.860;2023-09-19T12:06:10;5.07;;;1.20;;
71288;SDS011;59068;52.502;9.860;2023-09-19T12:08:40;4.80;;;1.90;;
71288;SDS011;59068;52.502;9.860;2023-09-19T12:11:11;5.03;;;1.80;;
71288;SDS011;59068;52.502;9.860;2023-09-19T12:13:41;6.83;;;1.53;;
71288;SDS011;59068;52.502;9.860;2023-09-19T12:16:14;6.47;;;1.60;;
71288;SDS011;59068;52.502;9.860;2023-09-19T12:18:44;3.60;;;1.43;;
71288;SDS011;59068;52.502;9.860;2023-09-19T12:21:25;6.47;;;1.53;;
71288;SDS011;59068;52.502;9.860;2023-09-19T12:24:04;5.20;;;1.37;;
71288;SDS011;59068;52.502;9.860;2023-09-19T12:26:37;5.00;;;1.50;;
71288;SDS011;59068;52.502;9.860;2023-09-19T12:29:10;3.37;;;1.40;;
71288;SDS011;59068;52.502;9.860;2023-09-19T12:31:46;5.17;;;1.43;;
71288;SDS011;59068;52.502;9.860;2023-09-19T12:34:20;4.53;;;1.23;;
71288;SDS011;59068;52.502;9.860;2023-09-19T12:36:48;6.23;;;1.50;;
71288;SDS011;59068;52.502;9.860;2023-09-19T12:39:24;4.10;;;1.73;;
71288;SDS011;59068;52.502;9.860;2023-09-19T12:41:52;5.43;;;1.70;;
71288;SDS011;59068;52.502;9.860;2023-09-19T12:44:19;5.40;;;1.40;;
71288;SDS011;59068;52.502;9.860;2023-09-19T12:46:49;5.53;;;1.53;;
71288;SDS011;59068;52.502;9.860;2023-09-19T12:49:16;4.80;;;1.43;;
71288;SDS011;59068;52.502;9.860;2023-09-19T12:51:45;3.70;;;1.80;;
71288;SDS011;59068;52.502;9.860;2023-09-19T12:54:12;3.07;;;1.50;;
71288;SDS011;59068;52.502;9.860;2023-09-19T12:56:41;5.83;;;1.63;;
71288;SDS011;59068;52.502;9.860;2023-09-19T12:59:09;5.97;;;1.77;;
71288;SDS011;59068;52.502;9.860;2023-09-19T13:01:38;5.07;;;1.47;;
71288;SDS011;59068;52.502;9.860;2023-09-19T13:04:12;4.00;;;1.63;;
71288;SDS011;59068;52.502;9.860;2023-09-19T13:06:46;5.30;;;1.70;;
71288;SDS011;59068;52.502;9.860;2023-09-19T13:09:14;5.80;;;1.67;;
71288;SDS011;59068;52.502;9.860;2023-09-19T13:11:41;5.17;;;1.20;;
71288;SDS011;59068;52.502;9.860;2023-09-19T13:14:14;4.53;;;1.50;;
71288;SDS011;59068;52.502;9.860;2023-09-19T13:16:52;4.00;;;1.47;;
71288;SDS011;59068;52.502;9.860;2023-09-19T13:19:34;3.37;;;1.30;;
71288;SDS011;59068;52.502;9.860;2023-09-19T13:22:06;5.90;;;1.83;;
71288;SDS011;59068;52.502;9.860;2023-09-19T13:25:11;4.33;;;1.50;;
71288;SDS011;59068;52.502;9.860;2023-09-19T13:27:40;4.63;;;1.50;;
71288;SDS011;59068;52.502;9.860;2023-09-19T13:30:08;6.10;;;1.80;;
71288;SDS011;59068;52.502;9.860;2023-09-19T13:32:35;4.60;;;1.73;;
71288;SDS011;59068;52.502;9.860;2023-09-19T13:35:05;3.77;;;1.80;;
71288;SDS011;59068;52.502;9.860;2023-09-19T13:37:35;5.43;;;2.13;;
71288;SDS011;59068;52.502;9.860;2023-09-19T13:40:06;2.97;;;1.33;;
71288;SDS011;59068;52.502;9.860;2023-09-19T13:42:34;3.90;;;1.87;;
71288;SDS011;59068;52.502;9.860;2023-09-19T13:45:01;6.33;;;1.90;;
71288;SDS011;59068;52.502;9.860;2023-09-19T13:47:29;4.30;;;1.47;;
71288;SDS011;59068;52.502;9.860;2023-09-19T13:49:57;2.97;;;1.77;;
71288;SDS011;59068;52.502;9.860;2023-09-19T13:52:24;3.33;;;1.53;;
71288;SDS011;59068;52.502;9.860;2023-09-19T13:54:54;3.87;;;1.57;;
71288;SDS011;59068;52.502;9.860;2023-09-19T13:57:21;4.77;;;1.90;;
71288;SDS011;59068;52.502;9.860;2023-09-19T13:59:49;4.10;;;1.50;;
71288;SDS011;59068;52.502;9.860;2023-09-19T14:02:16;3.10;;;1.70;;
71288;SDS011;59068;52.502;9.860;2023-09-19T14:04:43;4.70;;;1.93;;
71288;SDS011;59068;52.502;9.860;2023-09-19T14:07:10;3.17;;;1.53;;
71288;SDS011;59068;52.502;9.860;2023-09-19T14:09:37;4.10;;;1.53;;
71288;SDS011;59068;52.502;9.860;2023-09-19T14:12:05;4.17;;;1.63;;
71288;SDS011;59068;52.502;9.860;2023-09-19T14:14:32;3.73;;;1.70;;
71288;SDS011;59068;52.502;9.860;2023-09-19T14:16:59;3.00;;;1.60;;
71288;SDS011;59068;52.502;9.860;2023-09-19T14:19:26;2.70;;;1.67;;
71288;SDS011;59068;52.502;9.860;2023-09-19T14:21:53;4.33;;;2.03;;
71288;SDS011;59068;52.502;9.860;2023-09-19T14:24:21;5.23;;;2.00;;
71288;SDS011;59068;52.502;9.860;2023-09-19T14:26:48;3.57;;;1.70;;
71288;SDS011;59068;52.502;9.860;2023-09-19T14:29:16;6.40;;;1.80;;
71288;SDS011;59068;52.502;9.860;2023-09-19T14:31:44;3.03;;;1.70;;
71288;SDS011;59068;52.502;9.860;2023-09-19T14:34:11;3.20;;;1.43;;
71288;SDS011;59068;52.502;9.860;2023-09-19T14:36:39;3.27;;;1.03;;
71288;SDS011;59068;52.502;9.860;2023-09-19T14:39:06;4.07;;;1.50;;
71288;SDS011;59068;52.502;9.860;2023-09-19T14:41:35;4.23;;;1.50;;
71288;SDS011;59068;52.502;9.860;2023-09-19T14:44:03;2.70;;;1.47;;
71288;SDS011;59068;52.502;9.860;2023-09-19T14:46:31;4.17;;;1.60;;
71288;SDS011;59068;52.502;9.860;2023-09-19T14:48:58;4.53;;;1.70;;
71288;SDS011;59068;52.502;9.860;2023-09-19T14:51:28;4.43;;;1.50;;
71288;SDS011;59068;52.502;9.860;2023-09-19T14:53:55;3.60;;;1.50;;
71288;SDS011;59068;52.502;9.860;2023-09-19T14:56:22;4.40;;;1.60;;
71288;SDS011;59068;52.502;9.860;2023-09-19T14:58:50;3.10;;;1.60;;
71288;SDS011;59068;52.502;9.860;2023-09-19T15:01:17;2.73;;;1.53;;
71288;SDS011;59068;52.502;9.860;2023-09-19T15:03:45;4.50;;;1.47;;
71288;SDS011;59068;52.502;9.860;2023-09-19T15:06:13;5.67;;;1.47;;
71288;SDS011;59068;52.502;9.860;2023-09-19T15:08:43;3.33;;;1.60;;
71288;SDS011;59068;52.502;9.860;2023-09-19T15:11:12;2.90;;;1.53;;
71288;SDS011;59068;52.502;9.860;2023-09-19T15:13:41;3.20;;;1.40;;
71288;SDS011;59068;52.502;9.860;2023-09-19T15:16:08;6.80;;;1.70;;
71288;SDS011;59068;52.502;9.860;2023-09-19T15:18:37;5.23;;;1.50;;
71288;SDS011;59068;52.502;9.860;2023-09-19T15:21:07;3.77;;;1.87;;
71288;SDS011;59068;52.502;9.860;2023-09-19T15:23:35;3.00;;;1.60;;